createdAt,value
2018-03-29T06:07:42.485Z,35
2018-03-29T06:08:07.973Z,35
2018-03-29T06:08:33.485Z,30
2018-03-29T06:08:58.964Z,30
2018-03-29T06:09:24.421Z,35
2018-03-29T06:09:49.969Z,30
2018-03-29T06:10:15.472Z,35
2018-03-29T06:10:40.950Z,35
2018-03-29T06:11:06.416Z,45
2018-03-29T06:11:31.927Z,45
2018-03-29T06:11:57.437Z,45
2018-03-29T06:12:22.947Z,40
2018-03-29T06:12:48.453Z,40
2018-03-29T06:13:13.933Z,45
2018-03-29T06:13:39.431Z,50
2018-03-29T06:14:04.917Z,50
2018-03-29T06:14:30.438Z,50
2018-03-29T06:14:55.923Z,45
2018-03-29T06:15:21.477Z,50
2018-03-29T06:15:47.004Z,50
2018-03-29T06:16:12.534Z,55
2018-03-29T06:16:38.054Z,60
2018-03-29T06:17:03.621Z,60
2018-03-29T06:17:29.143Z,60
2018-03-29T06:17:54.646Z,60
2018-03-29T06:18:20.113Z,60
2018-03-29T06:18:45.609Z,60
2018-03-29T06:19:11.126Z,55
2018-03-29T06:19:36.605Z,55
2018-03-29T06:20:02.103Z,60
2018-03-29T06:20:27.637Z,65
2018-03-29T06:20:53.179Z,70
2018-03-29T06:21:18.647Z,70
2018-03-29T06:21:44.147Z,75
2018-03-29T06:22:09.700Z,80
2018-03-29T06:22:35.149Z,75
2018-03-29T06:23:00.687Z,75
2018-03-29T06:23:26.216Z,75
2018-03-29T06:23:51.704Z,75
2018-03-29T06:24:17.214Z,75
2018-03-29T06:24:42.743Z,70
2018-03-29T06:25:08.213Z,70
2018-03-29T06:25:33.688Z,70
2018-03-29T06:25:59.218Z,70
2018-03-29T06:26:24.782Z,75
2018-03-29T06:26:50.305Z,75
2018-03-29T06:27:15.827Z,70
2018-03-29T06:27:41.290Z,70
2018-03-29T06:28:06.784Z,65
2018-03-29T06:28:32.273Z,65
2018-03-29T06:28:57.768Z,70
2018-03-29T06:29:23.235Z,80
2018-03-29T06:29:48.700Z,75
2018-03-29T06:30:14.233Z,75
2018-03-29T06:30:39.701Z,70
2018-03-29T06:31:05.234Z,65
2018-03-29T06:31:30.756Z,60
2018-03-29T06:31:56.275Z,55
2018-03-29T06:32:21.787Z,60
2018-03-29T06:32:47.283Z,65
2018-03-29T06:33:12.754Z,65
2018-03-29T06:33:38.247Z,65
2018-03-29T06:34:03.715Z,70
2018-03-29T06:34:29.216Z,75
2018-03-29T06:34:54.735Z,75
2018-03-29T06:35:20.262Z,75
2018-03-29T06:35:45.809Z,70
2018-03-29T06:36:11.547Z,60
2018-03-29T06:36:37.039Z,45
2018-03-29T06:37:02.641Z,45
2018-03-29T06:37:28.207Z,50
2018-03-29T06:37:54.052Z,55
2018-03-29T06:38:19.677Z,55
2018-03-29T06:38:45.345Z,60
2018-03-29T06:39:10.865Z,70
2018-03-29T06:39:36.392Z,85
2018-03-29T06:40:01.945Z,95
2018-03-29T06:40:27.439Z,95
2018-03-29T06:40:53.016Z,95
2018-03-29T06:41:18.551Z,95
2018-03-29T06:41:46.525Z,100
2018-03-29T06:42:12.081Z,110
2018-03-29T06:42:37.628Z,125
2018-03-29T06:43:03.219Z,130
2018-03-29T06:43:28.712Z,135
2018-03-29T06:43:54.237Z,135
2018-03-29T06:44:19.729Z,135
2018-03-29T06:44:45.222Z,135
2018-03-29T06:45:10.695Z,140
2018-03-29T06:45:36.441Z,140
2018-03-29T06:46:01.960Z,140
2018-03-29T06:46:27.491Z,135
2018-03-29T06:46:53.019Z,125
2018-03-29T06:47:18.960Z,115
2018-03-29T06:47:44.544Z,100
2018-03-29T06:48:10.116Z,90
2018-03-29T06:48:36.646Z,85
2018-03-29T06:49:01.925Z,80
2018-03-29T06:49:27.527Z,85
2018-03-29T06:49:53.156Z,90
2018-03-29T06:50:18.638Z,95
2018-03-29T06:50:44.325Z,95
2018-03-29T06:51:09.810Z,100
2018-03-29T06:51:35.330Z,105
2018-03-29T06:52:00.962Z,115
2018-03-29T06:52:26.597Z,120
2018-03-29T06:52:52.116Z,125
2018-03-29T06:53:17.602Z,135
2018-03-29T06:53:43.205Z,140
2018-03-29T06:54:08.794Z,145
2018-03-29T06:54:34.410Z,150
2018-03-29T06:54:59.880Z,150
2018-03-29T06:55:25.398Z,160
2018-03-29T06:55:51.393Z,160
2018-03-29T06:56:16.534Z,165
2018-03-29T06:56:42.028Z,175
2018-03-29T06:57:07.592Z,185
2018-03-29T06:57:33.000Z,190
2018-03-29T06:57:58.559Z,195
2018-03-29T06:58:24.156Z,205
2018-03-29T06:58:49.680Z,200
2018-03-29T06:59:15.336Z,180
2018-03-29T06:59:41.421Z,170
2018-03-29T07:00:06.956Z,150
2018-03-29T07:00:32.466Z,150
2018-03-29T07:00:57.982Z,155
2018-03-29T07:01:23.548Z,155
2018-03-29T07:02:41.588Z,105
2018-03-29T07:03:05.529Z,105
2018-03-29T07:03:31.393Z,95
2018-03-29T07:03:56.900Z,80
2018-03-29T07:04:22.568Z,75
2018-03-29T07:04:48.084Z,70
2018-03-29T07:05:13.597Z,65
2018-03-29T07:05:39.079Z,60
2018-03-29T07:06:04.603Z,55
2018-03-29T07:06:30.178Z,65
2018-03-29T07:06:55.772Z,70
2018-03-29T07:07:21.550Z,75
2018-03-29T07:07:47.213Z,85
2018-03-29T07:08:12.754Z,90
2018-03-29T07:08:38.258Z,100
2018-03-29T07:09:03.905Z,100
2018-03-29T07:09:29.815Z,90
2018-03-29T07:09:55.407Z,85
2018-03-29T07:10:20.981Z,90
2018-03-29T07:10:46.513Z,90
2018-03-29T07:11:12.045Z,85
2018-03-29T07:11:37.605Z,85
2018-03-29T07:12:03.128Z,85
2018-03-29T07:12:28.541Z,80
2018-03-29T07:12:54.039Z,80
2018-03-29T07:13:19.514Z,85
2018-03-29T07:13:45.078Z,85
2018-03-29T07:14:10.691Z,85
2018-03-29T07:14:36.746Z,80
2018-03-29T07:15:02.718Z,80
2018-03-29T07:15:28.060Z,80
2018-03-29T07:15:53.591Z,75
2018-03-29T07:16:19.114Z,60
2018-03-29T07:16:44.957Z,60
2018-03-29T07:17:10.563Z,75
2018-03-29T07:17:36.167Z,85
2018-03-29T07:18:02.555Z,95
2018-03-29T07:18:28.048Z,95
2018-03-29T07:18:53.555Z,100
2018-03-29T07:19:19.049Z,100
2018-03-29T07:19:44.550Z,100
2018-03-29T07:20:10.025Z,90
2018-03-29T07:20:35.548Z,80
2018-03-29T07:21:01.018Z,85
2018-03-29T07:21:26.538Z,90
2018-03-29T07:21:52.049Z,90
2018-03-29T07:22:17.639Z,90
2018-03-29T07:22:43.140Z,85
2018-03-29T07:23:08.613Z,85
2018-03-29T07:23:34.092Z,85
2018-03-29T07:23:59.833Z,80
2018-03-29T07:24:25.349Z,75
2018-03-29T07:24:50.926Z,75
2018-03-29T07:25:16.443Z,75
2018-03-29T07:25:42.208Z,80
2018-03-29T07:26:07.738Z,90
2018-03-29T07:26:33.301Z,105
2018-03-29T07:26:58.791Z,120
2018-03-29T07:27:24.473Z,130
2018-03-29T07:27:50.028Z,135
2018-03-29T07:28:15.532Z,125
2018-03-29T07:28:41.068Z,110
2018-03-29T07:29:06.636Z,95
2018-03-29T07:29:32.135Z,90
2018-03-29T07:29:57.632Z,90
2018-03-29T07:30:23.132Z,85
2018-03-29T07:30:48.626Z,80
2018-03-29T07:31:14.193Z,75
2018-03-29T07:31:39.768Z,70
2018-03-29T07:32:05.309Z,80
2018-03-29T07:32:30.792Z,95
2018-03-29T07:32:56.283Z,115
2018-03-29T07:33:21.838Z,135
2018-03-29T07:33:47.345Z,140
2018-03-29T07:34:12.826Z,150
2018-03-29T07:34:38.334Z,155
2018-03-29T07:35:03.967Z,160
2018-03-29T07:35:29.530Z,160
2018-03-29T07:35:55.096Z,160
2018-03-29T07:36:20.569Z,155
2018-03-29T07:36:46.093Z,150
2018-03-29T07:37:11.628Z,145
2018-03-29T07:37:37.197Z,145
2018-03-29T07:38:02.784Z,150
2018-03-29T07:38:28.327Z,155
2018-03-29T07:38:53.897Z,155
2018-03-29T07:39:19.381Z,160
2018-03-29T07:39:44.876Z,150
2018-03-29T07:40:10.469Z,145
2018-03-29T07:40:35.947Z,135
2018-03-29T07:41:01.426Z,120
2018-03-29T07:41:26.995Z,110
2018-03-29T07:41:52.464Z,110
2018-03-29T07:42:17.990Z,120
2018-03-29T07:42:43.543Z,125
2018-03-29T07:43:09.083Z,120
2018-03-29T07:43:34.576Z,115
2018-03-29T07:44:00.124Z,115
2018-03-29T07:44:25.679Z,110
2018-03-29T07:44:51.230Z,105
2018-03-29T07:45:16.756Z,105
2018-03-29T07:45:42.258Z,110
2018-03-29T07:46:07.762Z,125
2018-03-29T07:46:33.258Z,140
2018-03-29T07:46:58.767Z,145
2018-03-29T07:47:24.285Z,155
2018-03-29T07:47:49.804Z,160
2018-03-29T07:48:15.326Z,165
2018-03-29T07:48:40.824Z,170
2018-03-29T07:49:06.352Z,175
2018-03-29T07:50:20.182Z,175
2018-03-29T07:50:45.672Z,175
2018-03-29T07:51:11.261Z,170
2018-03-29T07:51:36.784Z,165
2018-03-29T07:52:02.328Z,165
2018-03-29T07:52:27.779Z,165
2018-03-29T07:52:53.320Z,170
2018-03-29T07:53:18.845Z,175
2018-03-29T07:53:44.417Z,190
2018-03-29T07:54:09.896Z,205
2018-03-29T07:54:35.407Z,225
2018-03-29T07:55:00.902Z,240
2018-03-29T07:55:26.403Z,255
2018-03-29T07:55:51.913Z,255
2018-03-29T07:56:17.456Z,240
2018-03-29T07:56:42.966Z,220
2018-03-29T07:57:08.484Z,215
2018-03-29T07:57:33.970Z,210
2018-03-29T07:57:59.494Z,200
2018-03-29T07:58:24.996Z,200
2018-03-29T07:58:50.473Z,200
2018-03-29T07:59:16.118Z,220
2018-03-29T07:59:41.641Z,235
2018-03-29T08:00:07.178Z,235
2018-03-29T08:00:32.720Z,225
2018-03-29T08:00:58.208Z,220
2018-03-29T08:01:23.710Z,215
2018-03-29T08:01:49.268Z,205
2018-03-29T08:02:14.800Z,210
2018-03-29T08:02:40.282Z,210
2018-03-29T08:03:05.803Z,205
2018-03-29T08:03:31.285Z,195
2018-03-29T08:03:56.916Z,185
2018-03-29T08:04:22.448Z,170
2018-03-29T08:04:47.948Z,160
2018-03-29T08:05:13.424Z,155
2018-03-29T08:05:38.959Z,155
2018-03-29T08:06:04.468Z,155
2018-03-29T08:06:29.989Z,155
2018-03-29T08:06:55.481Z,155
2018-03-29T08:07:20.957Z,155
2018-03-29T08:07:46.435Z,150
2018-03-29T08:08:11.917Z,150
2018-03-29T08:08:37.397Z,155
2018-03-29T08:09:02.911Z,160
2018-03-29T08:09:28.399Z,165
2018-03-29T08:09:53.892Z,170
2018-03-29T08:10:19.410Z,175
2018-03-29T08:10:44.902Z,180
2018-03-29T08:11:10.413Z,185
2018-03-29T08:11:35.958Z,190
2018-03-29T08:12:01.436Z,200
2018-03-29T08:12:26.966Z,205
2018-03-29T08:12:52.416Z,205
2018-03-29T08:13:17.884Z,205
2018-03-29T08:13:43.446Z,215
2018-03-29T08:14:08.942Z,225
2018-03-29T08:14:34.423Z,230
2018-03-29T08:14:59.939Z,235
2018-03-29T08:15:25.505Z,235
2018-03-29T08:15:50.937Z,240
2018-03-29T08:16:16.459Z,240
2018-03-29T08:16:41.918Z,240
2018-03-29T08:17:07.482Z,240
2018-03-29T08:17:32.983Z,250
2018-03-29T08:17:58.527Z,250
2018-03-29T08:18:24.025Z,245
2018-03-29T08:18:49.529Z,230
2018-03-29T08:19:15.045Z,220
2018-03-29T08:19:40.700Z,210
2018-03-29T08:20:06.070Z,200
2018-03-29T08:20:31.599Z,190
2018-03-29T08:20:57.100Z,180
2018-03-29T08:21:22.727Z,165
2018-03-29T08:21:48.376Z,155
2018-03-29T08:22:13.827Z,150
2018-03-29T08:22:39.303Z,150
2018-03-29T08:23:04.798Z,140
2018-03-29T08:23:30.333Z,130
2018-03-29T08:23:55.851Z,130
2018-03-29T08:24:21.383Z,130
2018-03-29T08:24:46.910Z,135
2018-03-29T08:25:12.498Z,130
2018-03-29T08:25:38.047Z,125
2018-03-29T08:26:03.950Z,120
2018-03-29T08:26:29.339Z,125
2018-03-29T08:26:54.835Z,140
2018-03-29T08:27:20.377Z,165
2018-03-29T08:27:45.813Z,185
2018-03-29T08:28:11.334Z,210
2018-03-29T08:28:36.858Z,225
2018-03-29T08:29:02.407Z,240
2018-03-29T08:29:27.920Z,235
2018-03-29T08:29:53.518Z,230
2018-03-29T08:30:19.038Z,225
2018-03-29T08:30:44.563Z,215
2018-03-29T08:31:10.058Z,205
2018-03-29T08:31:35.541Z,185
2018-03-29T08:32:01.055Z,165
2018-03-29T08:32:26.620Z,150
2018-03-29T08:32:52.185Z,155
2018-03-29T08:33:17.701Z,160
2018-03-29T08:33:43.316Z,160
2018-03-29T08:34:08.812Z,160
2018-03-29T08:34:34.344Z,160
2018-03-29T08:34:59.883Z,165
2018-03-29T08:35:25.339Z,170
2018-03-29T08:35:50.850Z,160
2018-03-29T08:36:16.353Z,145
2018-03-29T08:36:41.929Z,135
2018-03-29T08:37:07.460Z,135
2018-03-29T08:37:32.980Z,155
2018-03-29T08:37:58.534Z,175
2018-03-29T08:38:23.998Z,185
2018-03-29T08:38:49.463Z,160
2018-03-29T08:39:14.974Z,145
2018-03-29T08:39:40.534Z,140
2018-03-29T08:40:06.039Z,130
2018-03-29T08:40:31.600Z,120
2018-03-29T08:40:57.091Z,105
2018-03-29T08:41:22.655Z,95
2018-03-29T08:41:48.171Z,90
2018-03-29T08:43:12.341Z,85
2018-03-29T08:43:37.885Z,85
2018-03-29T08:44:03.342Z,80
2018-03-29T08:44:28.890Z,80
2018-03-29T08:44:54.419Z,75
2018-03-29T08:45:19.879Z,85
2018-03-29T08:45:45.371Z,100
2018-03-29T08:46:10.892Z,105
2018-03-29T08:46:36.392Z,110
2018-03-29T08:47:01.922Z,115
2018-03-29T08:47:27.406Z,120
2018-03-29T08:47:52.959Z,120
2018-03-29T08:48:18.553Z,125
2018-03-29T08:48:44.078Z,130
2018-03-29T08:49:09.560Z,135
2018-03-29T08:49:35.146Z,120
2018-03-29T08:50:00.607Z,120
2018-03-29T08:50:26.155Z,125
2018-03-29T08:50:51.669Z,130
2018-03-29T08:51:17.147Z,130
2018-03-29T08:51:42.747Z,125
2018-03-29T08:52:08.245Z,135
2018-03-29T08:52:33.802Z,140
2018-03-29T08:52:59.310Z,130
2018-03-29T08:53:24.809Z,115
2018-03-29T08:53:50.487Z,115
2018-03-29T08:54:16.045Z,120
2018-03-29T08:54:41.571Z,125
2018-03-29T08:55:07.080Z,115
2018-03-29T08:55:32.602Z,110
2018-03-29T08:55:58.106Z,105
2018-03-29T08:56:23.596Z,115
2018-03-29T08:56:49.132Z,140
2018-03-29T08:57:14.746Z,165
2018-03-29T08:57:40.274Z,190
2018-03-29T08:58:05.762Z,205
2018-03-29T08:58:31.326Z,220
2018-03-29T08:58:56.784Z,225
2018-03-29T08:59:22.308Z,230
2018-03-29T08:59:47.889Z,240
2018-03-29T09:00:13.361Z,255
2018-03-29T09:00:38.891Z,270
2018-03-29T09:02:03.243Z,290
2018-03-29T09:02:28.706Z,295
2018-03-29T09:02:54.229Z,300
2018-03-29T09:03:19.791Z,305
2018-03-29T09:03:45.302Z,310
2018-03-29T09:04:10.853Z,315
2018-03-29T09:04:36.338Z,320
2018-03-29T09:05:01.830Z,320
2018-03-29T09:05:27.335Z,320
2018-03-29T09:05:52.872Z,315
2018-03-29T09:06:18.341Z,315
2018-03-29T09:06:43.883Z,315
2018-03-29T09:07:10.039Z,315
2018-03-29T09:07:35.411Z,320
2018-03-29T09:08:00.925Z,325
2018-03-29T09:08:26.417Z,330
2018-03-29T09:08:51.937Z,330
2018-03-29T09:09:17.452Z,325
2018-03-29T09:09:42.948Z,320
2018-03-29T09:10:08.426Z,315
2018-03-29T09:10:33.937Z,320
2018-03-29T09:10:59.463Z,315
2018-03-29T09:11:25.023Z,310
2018-03-29T09:11:50.590Z,305
2018-03-29T09:12:16.050Z,310
2018-03-29T09:12:41.606Z,315
2018-03-29T09:13:07.086Z,320
2018-03-29T09:13:32.586Z,325
2018-03-29T09:13:58.081Z,325
2018-03-29T09:14:23.550Z,330
2018-03-29T09:14:49.043Z,325
2018-03-29T09:15:14.609Z,330
2018-03-29T09:15:40.141Z,330
2018-03-29T09:16:05.666Z,330
2018-03-29T09:16:31.268Z,325
2018-03-29T09:16:56.693Z,320
2018-03-29T09:17:22.281Z,310
2018-03-29T09:17:47.738Z,310
2018-03-29T09:18:13.372Z,310
2018-03-29T09:18:38.934Z,315
2018-03-29T09:19:04.542Z,315
2018-03-29T09:19:30.023Z,315
2018-03-29T09:19:55.549Z,320
2018-03-29T09:20:21.079Z,325
2018-03-29T09:20:46.598Z,325
2018-03-29T09:21:12.137Z,315
2018-03-29T09:21:37.654Z,305
2018-03-29T09:22:03.161Z,295
2018-03-29T09:22:28.708Z,305
2018-03-29T09:22:54.150Z,315
2018-03-29T09:23:19.684Z,330
2018-03-29T09:23:45.188Z,330
2018-03-29T09:24:11.603Z,335
2018-03-29T09:24:37.138Z,330
2018-03-29T09:25:02.586Z,330
2018-03-29T09:25:28.118Z,320
2018-03-29T09:25:53.697Z,290
2018-03-29T09:26:19.251Z,270
2018-03-29T09:26:44.798Z,255
2018-03-29T09:27:10.407Z,240
2018-03-29T09:27:35.852Z,225
2018-03-29T09:28:01.310Z,225
2018-03-29T09:28:26.843Z,225
2018-03-29T09:28:52.382Z,220
2018-03-29T09:29:17.903Z,230
2018-03-29T09:29:43.455Z,240
2018-03-29T09:30:08.971Z,260
2018-03-29T09:30:34.487Z,275
2018-03-29T09:31:00.015Z,275
2018-03-29T09:31:25.521Z,270
2018-03-29T09:31:51.009Z,260
2018-03-29T09:32:16.523Z,265
2018-03-29T09:32:42.042Z,290
2018-03-29T09:33:07.561Z,305
2018-03-29T09:33:33.144Z,310
2018-03-29T09:33:58.688Z,300
2018-03-29T09:34:24.206Z,300
2018-03-29T09:34:49.767Z,305
2018-03-29T09:35:15.239Z,305
2018-03-29T09:35:40.776Z,305
2018-03-29T09:36:06.264Z,300
2018-03-29T09:36:31.849Z,275
2018-03-29T09:36:57.301Z,230
2018-03-29T09:37:22.763Z,190
2018-03-29T09:37:48.303Z,165
2018-03-29T09:38:13.839Z,170
2018-03-29T09:38:39.336Z,195
2018-03-29T09:39:04.881Z,220
2018-03-29T09:39:30.446Z,230
2018-03-29T09:39:55.971Z,250
2018-03-29T09:40:21.435Z,285
2018-03-29T09:40:46.950Z,305
2018-03-29T09:41:12.417Z,310
2018-03-29T09:41:37.966Z,300
2018-03-29T09:42:03.488Z,270
2018-03-29T09:42:29.009Z,240
2018-03-29T09:42:54.473Z,205
2018-03-29T09:43:20.043Z,185
2018-03-29T09:43:45.563Z,180
2018-03-29T09:44:11.074Z,185
2018-03-29T09:44:40.609Z,180
2018-03-29T09:45:06.155Z,180
2018-03-29T09:45:31.661Z,190
2018-03-29T09:45:57.366Z,200
2018-03-29T09:46:23.093Z,225
2018-03-29T09:46:48.774Z,230
2018-03-29T09:47:58.523Z,270
2018-03-29T09:48:24.049Z,270
2018-03-29T09:48:49.500Z,250
2018-03-29T09:49:15.851Z,240
2018-03-29T09:49:41.471Z,235
2018-03-29T09:50:06.869Z,230
2018-03-29T09:50:32.417Z,220
2018-03-29T09:50:57.900Z,205
2018-03-29T09:51:23.414Z,195
2018-03-29T09:51:48.965Z,190
2018-03-29T09:52:14.485Z,195
2018-03-29T09:52:39.991Z,190
2018-03-29T09:53:05.525Z,190
2018-03-29T09:53:31.101Z,190
2018-03-29T09:53:56.559Z,200
2018-03-29T09:54:22.072Z,220
2018-03-29T09:54:48.181Z,240
2018-03-29T09:55:13.713Z,255
2018-03-29T09:55:39.276Z,260
2018-03-29T09:56:04.809Z,265
2018-03-29T09:56:30.323Z,270
2018-03-29T09:56:55.919Z,280
2018-03-29T09:57:21.493Z,290
2018-03-29T09:57:47.006Z,300
2018-03-29T09:58:12.600Z,310
2018-03-29T09:58:38.107Z,325
2018-03-29T09:59:03.606Z,340
2018-03-29T09:59:29.109Z,350
2018-03-29T09:59:54.599Z,360
2018-03-29T10:00:20.200Z,370
2018-03-29T10:00:45.681Z,375
2018-03-29T10:01:11.210Z,380
2018-03-29T10:01:36.675Z,380
2018-03-29T10:02:02.175Z,380
2018-03-29T10:02:27.754Z,385
2018-03-29T10:02:53.273Z,390
2018-03-29T10:03:18.789Z,390
2018-03-29T10:03:45.592Z,395
2018-03-29T10:04:11.072Z,395
2018-03-29T10:04:36.572Z,400
2018-03-29T10:05:02.105Z,395
2018-03-29T10:06:11.834Z,400
2018-03-29T10:06:37.345Z,405
2018-03-29T10:07:02.841Z,410
2018-03-29T10:07:28.433Z,410
2018-03-29T10:07:53.908Z,410
2018-03-29T10:08:19.556Z,410
2018-03-29T10:08:45.041Z,405
2018-03-29T10:09:10.571Z,405
2018-03-29T10:09:36.123Z,405
2018-03-29T10:10:01.636Z,410
2018-03-29T10:10:27.185Z,410
2018-03-29T10:10:52.689Z,410
2018-03-29T10:11:18.211Z,410
2018-03-29T10:11:43.716Z,410
2018-03-29T10:12:09.283Z,405
2018-03-29T10:12:34.757Z,395
2018-03-29T10:13:00.264Z,380
2018-03-29T10:13:25.817Z,370
2018-03-29T10:13:51.344Z,385
2018-03-29T10:14:16.852Z,380
2018-03-29T10:14:42.485Z,375
2018-03-29T10:15:07.954Z,370
2018-03-29T10:15:33.457Z,365
2018-03-29T10:15:59.091Z,360
2018-03-29T10:16:24.564Z,360
2018-03-29T10:16:50.068Z,365
2018-03-29T10:17:15.565Z,365
2018-03-29T10:17:41.057Z,370
2018-03-29T10:18:06.596Z,375
2018-03-29T10:18:32.806Z,385
2018-03-29T10:18:58.653Z,385
2018-03-29T10:19:25.040Z,395
2018-03-29T10:19:50.540Z,405
2018-03-29T10:20:16.101Z,435
2018-03-29T10:20:41.768Z,450
2018-03-29T10:21:07.322Z,445
2018-03-29T10:21:32.886Z,445
2018-03-29T10:21:59.020Z,450
2018-03-29T10:22:24.777Z,455
2018-03-29T10:22:50.274Z,470
2018-03-29T10:23:16.028Z,480
2018-03-29T10:23:41.916Z,495
2018-03-29T10:24:07.401Z,480
2018-03-29T10:24:32.959Z,460
2018-03-29T10:24:58.345Z,455
2018-03-29T10:25:24.028Z,455
2018-03-29T10:25:50.430Z,455
2018-03-29T10:26:16.057Z,460
2018-03-29T10:26:41.667Z,460
2018-03-29T10:27:07.462Z,440
2018-03-29T10:27:33.249Z,425
2018-03-29T10:27:58.737Z,405
2018-03-29T10:28:24.378Z,390
2018-03-29T10:28:49.861Z,365
2018-03-29T10:29:15.585Z,345
2018-03-29T10:29:41.266Z,330
2018-03-29T10:30:06.937Z,335
2018-03-29T10:30:32.503Z,360
2018-03-29T10:30:58.025Z,370
2018-03-29T10:31:23.672Z,365
2018-03-29T10:31:49.351Z,340
2018-03-29T10:32:15.099Z,305
2018-03-29T10:32:40.757Z,265
2018-03-29T10:33:06.354Z,240
2018-03-29T10:33:31.979Z,225
2018-03-29T10:33:57.820Z,220
2018-03-29T10:34:23.448Z,220
2018-03-29T10:34:48.998Z,225
2018-03-29T10:35:14.700Z,235
2018-03-29T10:35:40.439Z,245
2018-03-29T10:36:05.981Z,260
2018-03-29T10:36:31.781Z,280
2018-03-29T10:36:57.619Z,305
2018-03-29T10:37:23.318Z,320
2018-03-29T10:37:48.886Z,315
2018-03-29T10:38:14.499Z,285
2018-03-29T10:38:40.028Z,235
2018-03-29T10:39:05.995Z,195
2018-03-29T10:39:31.808Z,165
2018-03-29T10:39:57.391Z,145
2018-03-29T10:40:23.023Z,135
2018-03-29T10:40:48.696Z,145
2018-03-29T10:41:14.558Z,180
2018-03-29T10:41:40.149Z,235
2018-03-29T10:42:05.619Z,250
2018-03-29T10:43:24.710Z,220
2018-03-29T10:43:50.319Z,205
2018-03-29T10:44:16.187Z,190
2018-03-29T10:44:41.882Z,180
2018-03-29T10:45:07.492Z,215
2018-03-29T10:45:33.026Z,255
2018-03-29T10:45:58.575Z,285
2018-03-29T10:46:24.156Z,285
2018-03-29T10:46:49.937Z,265
2018-03-29T10:47:18.396Z,250
2018-03-29T10:47:44.166Z,230
2018-03-29T10:48:09.584Z,210
2018-03-29T10:48:35.093Z,190
2018-03-29T10:49:00.641Z,195
2018-03-29T10:49:26.327Z,215
2018-03-29T10:49:51.855Z,225
2018-03-29T10:50:17.355Z,225
2018-03-29T10:50:42.992Z,215
2018-03-29T10:51:08.441Z,205
2018-03-29T10:51:33.973Z,195
2018-03-29T10:51:59.460Z,200
2018-03-29T10:52:25.181Z,220
2018-03-29T10:52:50.630Z,235
2018-03-29T10:53:16.176Z,225
2018-03-29T10:53:41.668Z,205
2018-03-29T10:54:07.219Z,185
2018-03-29T10:54:32.720Z,160
2018-03-29T10:54:58.219Z,150
2018-03-29T10:55:23.817Z,135
2018-03-29T10:55:49.270Z,125
2018-03-29T10:56:14.771Z,120
2018-03-29T10:56:40.262Z,115
2018-03-29T10:57:05.772Z,110
2018-03-29T10:57:31.360Z,110
2018-03-29T10:57:56.999Z,115
2018-03-29T10:58:22.468Z,115
2018-03-29T10:58:47.938Z,120
2018-03-29T10:59:13.471Z,120
2018-03-29T10:59:39.050Z,125
2018-03-29T11:00:04.743Z,135
2018-03-29T11:00:30.401Z,155
2018-03-29T11:00:55.842Z,180
2018-03-29T11:01:21.396Z,205
2018-03-29T11:01:47.093Z,230
2018-03-29T11:02:12.556Z,260
2018-03-29T11:02:38.070Z,305
2018-03-29T11:03:03.607Z,330
2018-03-29T11:03:29.142Z,330
2018-03-29T11:03:54.814Z,320
2018-03-29T11:04:20.223Z,315
2018-03-29T11:04:45.718Z,315
2018-03-29T11:05:11.246Z,310
2018-03-29T11:05:36.804Z,305
2018-03-29T11:06:02.380Z,305
2018-03-29T11:06:27.952Z,305
2018-03-29T11:06:53.444Z,310
2018-03-29T11:07:18.917Z,310
2018-03-29T11:07:44.556Z,305
2018-03-29T11:08:10.114Z,295
2018-03-29T11:08:35.616Z,295
2018-03-29T11:09:01.127Z,285
2018-03-29T11:09:26.714Z,280
2018-03-29T11:09:52.203Z,265
2018-03-29T11:10:17.729Z,265
2018-03-29T11:10:43.182Z,280
2018-03-29T11:11:08.655Z,300
2018-03-29T11:11:34.199Z,330
2018-03-29T11:11:59.653Z,355
2018-03-29T11:12:25.201Z,355
2018-03-29T11:12:50.849Z,345
2018-03-29T11:13:16.467Z,340
2018-03-29T11:13:41.942Z,345
2018-03-29T11:14:07.485Z,345
2018-03-29T11:14:32.988Z,345
2018-03-29T11:14:58.609Z,355
2018-03-29T11:15:24.324Z,345
2018-03-29T11:15:49.766Z,335
2018-03-29T11:16:15.454Z,320
2018-03-29T11:16:41.172Z,305
2018-03-29T11:17:06.487Z,295
2018-03-29T11:17:31.965Z,290
2018-03-29T11:17:57.477Z,275
2018-03-29T11:18:22.976Z,280
2018-03-29T11:18:48.538Z,270
2018-03-29T11:19:14.007Z,280
2018-03-29T11:19:39.775Z,300
2018-03-29T11:20:05.118Z,310
2018-03-29T11:20:30.599Z,325
2018-03-29T11:20:56.214Z,330
2018-03-29T11:21:21.892Z,330
2018-03-29T11:21:47.481Z,325
2018-03-29T11:22:13.454Z,325
2018-03-29T11:22:38.949Z,335
2018-03-29T11:23:04.399Z,360
2018-03-29T11:23:29.956Z,380
2018-03-29T11:23:55.420Z,380
2018-03-29T11:24:20.882Z,375
2018-03-29T11:24:46.492Z,365
2018-03-29T11:25:12.054Z,340
2018-03-29T11:25:37.461Z,325
2018-03-29T11:26:03.053Z,320
2018-03-29T11:26:28.594Z,315
2018-03-29T11:26:54.085Z,295
2018-03-29T11:27:19.615Z,265
2018-03-29T11:27:45.109Z,240
2018-03-29T11:28:10.766Z,240
2018-03-29T11:28:36.248Z,240
2018-03-29T11:29:01.733Z,255
2018-03-29T11:29:27.222Z,275
2018-03-29T11:29:52.843Z,290
2018-03-29T11:30:18.492Z,295
2018-03-29T11:30:43.934Z,310
2018-03-29T11:31:09.444Z,315
2018-03-29T11:31:34.926Z,315
2018-03-29T11:32:00.725Z,320
2018-03-29T11:32:26.237Z,325
2018-03-29T11:32:51.973Z,315
2018-03-29T11:33:17.487Z,315
2018-03-29T11:33:43.282Z,315
2018-03-29T11:34:08.859Z,320
2018-03-29T11:34:34.360Z,330
2018-03-29T11:35:00.110Z,335
2018-03-29T11:35:25.691Z,340
2018-03-29T11:35:51.262Z,345
2018-03-29T11:36:16.835Z,365
2018-03-29T11:36:42.381Z,405
2018-03-29T11:37:07.944Z,425
2018-03-29T11:37:33.525Z,435
2018-03-29T11:37:59.096Z,435
2018-03-29T11:38:24.625Z,420
2018-03-29T11:38:50.139Z,420
2018-03-29T11:39:15.965Z,385
2018-03-29T11:39:41.530Z,360
2018-03-29T11:40:07.038Z,360
2018-03-29T11:40:32.536Z,365
2018-03-29T11:40:58.125Z,365
2018-03-29T11:41:23.667Z,365
2018-03-29T11:41:49.166Z,360
2018-03-29T11:42:14.691Z,345
2018-03-29T11:42:40.399Z,330
2018-03-29T11:43:06.194Z,320
2018-03-29T11:43:31.800Z,310
2018-03-29T11:43:57.410Z,305
2018-03-29T11:44:22.946Z,300
2018-03-29T11:44:48.640Z,305
2018-03-29T11:45:14.130Z,310
2018-03-29T11:45:39.693Z,320
2018-03-29T11:46:05.179Z,335
2018-03-29T11:46:30.666Z,355
2018-03-29T11:46:56.280Z,365
2018-03-29T11:47:21.784Z,380
2018-03-29T11:47:47.372Z,385
2018-03-29T11:48:13.079Z,385
2018-03-29T11:48:38.611Z,390
2018-03-29T11:49:04.162Z,405
2018-03-29T11:49:29.748Z,420
2018-03-29T11:49:55.375Z,450
2018-03-29T11:50:21.016Z,465
2018-03-29T11:50:46.455Z,465
2018-03-29T11:51:11.927Z,465
2018-03-29T11:51:37.470Z,460
2018-03-29T11:52:03.217Z,465
2018-03-29T11:52:28.742Z,465
2018-03-29T11:52:54.358Z,465
2018-03-29T11:53:19.982Z,470
2018-03-29T11:53:45.479Z,480
2018-03-29T11:54:11.097Z,485
2018-03-29T11:54:36.833Z,490
2018-03-29T11:55:02.472Z,490
2018-03-29T11:55:28.102Z,485
2018-03-29T11:55:53.676Z,470
2018-03-29T11:56:19.391Z,440
2018-03-29T11:56:45.264Z,420
2018-03-29T11:57:10.834Z,420
2018-03-29T11:57:36.291Z,435
2018-03-29T11:58:02.159Z,455
2018-03-29T11:58:27.652Z,470
2018-03-29T11:58:53.247Z,475
2018-03-29T11:59:18.816Z,470
2018-03-29T11:59:44.349Z,460
2018-03-29T12:00:10.098Z,450
2018-03-29T12:00:35.595Z,440
2018-03-29T12:01:01.524Z,425
2018-03-29T12:01:27.123Z,425
2018-03-29T12:01:52.940Z,430
2018-03-29T12:02:18.545Z,420
2018-03-29T12:02:44.154Z,410
2018-03-29T12:03:09.749Z,390
2018-03-29T12:03:35.388Z,370
2018-03-29T12:04:01.018Z,340
2018-03-29T12:04:26.525Z,300
2018-03-29T12:04:52.034Z,275
2018-03-29T12:05:17.629Z,260
2018-03-29T12:05:43.608Z,255
2018-03-29T12:06:09.156Z,235
2018-03-29T12:06:34.701Z,250
2018-03-29T12:07:00.164Z,250
2018-03-29T12:07:25.726Z,250
2018-03-29T12:07:51.270Z,255